sensor_id;sensor_type;location;lat;lon;timestamp;pressure;altitude;pressure_sealevel;temperature;humidity
11878;BME280;5998;42.676;23.268;2022-08-21T00:01:16;94308.34;;;20.75;100.00
11878;BME280;5998;42.676;23.268;2022-08-21T00:03:44;94298.94;;;20.99;100.00
11878;BME280;5998;42.676;23.268;2022-08-21T00:06:11;94298.53;;;21.01;100.00
11878;BME280;5998;42.676;23.268;2022-08-21T00:08:38;94299.66;;;21.03;100.00
11878;BME280;5998;42.676;23.268;2022-08-21T00:11:06;94298.28;;;20.92;100.00
11878;BME280;5998;42.676;23.268;2022-08-21T00:13:33;94301.28;;;20.78;100.00
11878;BME280;5998;42.676;23.268;2022-08-21T00:16:00;94297.94;;;20.67;100.00
11878;BME280;5998;42.676;23.268;2022-08-21T00:18:27;94287.34;;;20.69;100.00
11878;BME280;5998;42.676;23.268;2022-08-21T00:20:54;94294.03;;;20.68;100.00
11878;BME280;5998;42.676;23.268;2022-08-21T00:23:21;94284.59;;;20.69;100.00
11878;BME280;5998;42.676;23.268;2022-08-21T00:25:48;94273.06;;;20.57;100.00
11878;BME280;5998;42.676;23.268;2022-08-21T00:28:16;94273.44;;;20.59;100.00
11878;BME280;5998;42.676;23.268;2022-08-21T00:30:44;94269.22;;;20.55;100.00
11878;BME280;5998;42.676;23.268;2022-08-21T00:33:11;94277.50;;;20.51;100.00
11878;BME280;5998;42.676;23.268;2022-08-21T00:35:40;94273.97;;;20.51;100.00
11878;BME280;5998;42.676;23.268;2022-08-21T00:38:08;94281.84;;;20.49;100.00
11878;BME280;5998;42.676;23.268;2022-08-21T00:40:39;94273.69;;;20.45;100.00
11878;BME280;5998;42.676;23.268;2022-08-21T00:43:08;94277.00;;;20.56;100.00
11878;BME280;5998;42.676;23.268;2022-08-21T00:45:37;94275.88;;;20.54;100.00
11878;BME280;5998;42.676;23.268;2022-08-21T00:48:04;94287.31;;;20.49;100.00
11878;BME280;5998;42.676;23.268;2022-08-21T00:50:43;94284.63;;;20.45;100.00
11878;BME280;5998;42.676;23.268;2022-08-21T00:53:11;94287.81;;;20.40;100.00
11878;BME280;5998;42.676;23.268;2022-08-21T00:55:40;94268.72;;;20.37;100.00
11878;BME280;5998;42.676;23.268;2022-08-21T00:58:09;94281.09;;;20.45;100.00
11878;BME280;5998;42.676;23.268;2022-08-21T01:00:41;94276.69;;;20.28;100.00
11878;BME280;5998;42.676;23.268;2022-08-21T01:03:11;94283.38;;;20.23;100.00
11878;BME280;5998;42.676;23.268;2022-08-21T01:05:39;94277.44;;;20.28;100.00
11878;BME280;5998;42.676;23.268;2022-08-21T01:08:07;94278.28;;;20.25;100.00
11878;BME280;5998;42.676;23.268;2022-08-21T01:10:35;94276.03;;;20.17;100.00
11878;BME280;5998;42.676;23.268;2022-08-21T01:13:03;94276.47;;;20.15;100.00
11878;BME280;5998;42.676;23.268;2022-08-21T01:15:38;94275.72;;;20.11;100.00
11878;BME280;5998;42.676;23.268;2022-08-21T01:18:09;94263.00;;;20.28;100.00
11878;BME280;5998;42.676;23.268;2022-08-21T01:20:36;94253.38;;;20.16;100.00
11878;BME280;5998;42.676;23.268;2022-08-21T01:23:05;94255.72;;;20.18;100.00
11878;BME280;5998;42.676;23.268;2022-08-21T01:25:33;94248.78;;;20.13;100.00
11878;BME280;5998;42.676;23.268;2022-08-21T01:28:04;94258.81;;;20.20;100.00
11878;BME280;5998;42.676;23.268;2022-08-21T01:30:34;94259.63;;;20.17;100.00
11878;BME280;5998;42.676;23.268;2022-08-21T01:33:02;94245.63;;;20.15;100.00
11878;BME280;5998;42.676;23.268;2022-08-21T01:35:29;94255.88;;;20.07;100.00
11878;BME280;5998;42.676;23.268;2022-08-21T01:37:56;94267.91;;;20.13;100.00
11878;BME280;5998;42.676;23.268;2022-08-21T01:40:24;94267.53;;;20.11;100.00
11878;BME280;5998;42.676;23.268;2022-08-21T01:42:50;94264.91;;;20.04;100.00
11878;BME280;5998;42.676;23.268;2022-08-21T01:45:19;94274.50;;;20.16;100.00
11878;BME280;5998;42.676;23.268;2022-08-21T01:47:46;94265.06;;;20.20;100.00
11878;BME280;5998;42.676;23.268;2022-08-21T01:50:17;94266.69;;;20.14;100.00
11878;BME280;5998;42.676;23.268;2022-08-21T01:52:44;94266.00;;;20.10;100.00
11878;BME280;5998;42.676;23.268;2022-08-21T01:55:12;94267.06;;;20.16;100.00
11878;BME280;5998;42.676;23.268;2022-08-21T01:57:40;94256.19;;;20.13;100.00
11878;BME280;5998;42.676;23.268;2022-08-21T02:00:10;94251.13;;;20.11;100.00
11878;BME280;5998;42.676;23.268;2022-08-21T02:02:38;94271.19;;;20.01;100.00
11878;BME280;5998;42.676;23.268;2022-08-21T02:05:07;94274.38;;;19.69;100.00
11878;BME280;5998;42.676;23.268;2022-08-21T02:07:36;94273.84;;;19.48;100.00
11878;BME280;5998;42.676;23.268;2022-08-21T02:10:06;94279.97;;;19.25;100.00
11878;BME280;5998;42.676;23.268;2022-08-21T02:12:33;94287.44;;;19.17;100.00
11878;BME280;5998;42.676;23.268;2022-08-21T02:15:02;94286.34;;;19.11;100.00
11878;BME280;5998;42.676;23.268;2022-08-21T02:17:37;94288.09;;;18.95;100.00
11878;BME280;5998;42.676;23.268;2022-08-21T02:20:05;94292.44;;;18.85;100.00
11878;BME280;5998;42.676;23.268;2022-08-21T02:22:32;94300.28;;;18.79;100.00
11878;BME280;5998;42.676;23.268;2022-08-21T02:24:58;94300.88;;;19.01;100.00
11878;BME280;5998;42.676;23.268;2022-08-21T02:27:25;94293.16;;;18.93;100.00
11878;BME280;5998;42.676;23.268;2022-08-21T02:29:53;94294.56;;;19.08;100.00
11878;BME280;5998;42.676;23.268;2022-08-21T02:32:21;94309.81;;;19.05;100.00
11878;BME280;5998;42.676;23.268;2022-08-21T02:34:48;94301.34;;;18.93;100.00
11878;BME280;5998;42.676;23.268;2022-08-21T02:37:15;94295.50;;;18.91;100.00
11878;BME280;5998;42.676;23.268;2022-08-21T02:39:41;94295.47;;;18.98;100.00
11878;BME280;5998;42.676;23.268;2022-08-21T02:42:08;94311.03;;;19.01;100.00
11878;BME280;5998;42.676;23.268;2022-08-21T02:44:35;94302.00;;;19.04;100.00
11878;BME280;5998;42.676;23.268;2022-08-21T02:47:01;94303.53;;;19.08;100.00
11878;BME280;5998;42.676;23.268;2022-08-21T02:49:29;94309.25;;;19.21;100.00
11878;BME280;5998;42.676;23.268;2022-08-21T02:51:56;94305.25;;;19.29;100.00
11878;BME280;5998;42.676;23.268;2022-08-21T02:54:23;94295.09;;;19.29;100.00
11878;BME280;5998;42.676;23.268;2022-08-21T02:56:50;94290.75;;;19.39;100.00
11878;BME280;5998;42.676;23.268;2022-08-21T02:59:16;94282.44;;;19.50;100.00
11878;BME280;5998;42.676;23.268;2022-08-21T03:01:43;94289.88;;;19.46;100.00
11878;BME280;5998;42.676;23.268;2022-08-21T03:04:10;94291.78;;;19.49;100.00
11878;BME280;5998;42.676;23.268;2022-08-21T03:06:38;94299.84;;;19.59;100.00
11878;BME280;5998;42.676;23.268;2022-08-21T03:09:05;94264.09;;;19.50;100.00
11878;BME280;5998;42.676;23.268;2022-08-21T03:11:32;94292.66;;;19.72;100.00
11878;BME280;5998;42.676;23.268;2022-08-21T03:13:59;94280.88;;;19.49;100.00
11878;BME280;5998;42.676;23.268;2022-08-21T03:16:26;94293.34;;;19.50;100.00
11878;BME280;5998;42.676;23.268;2022-08-21T03:18:52;94293.91;;;19.68;100.00
11878;BME280;5998;42.676;23.268;2022-08-21T03:21:19;94279.94;;;19.59;100.00
11878;BME280;5998;42.676;23.268;2022-08-21T03:23:47;94292.63;;;19.76;100.00
11878;BME280;5998;42.676;23.268;2022-08-21T03:26:14;94294.63;;;19.72;100.00
11878;BME280;5998;42.676;23.268;2022-08-21T03:28:40;94290.69;;;19.73;100.00
11878;BME280;5998;42.676;23.268;2022-08-21T03:31:07;94285.41;;;19.59;100.00
11878;BME280;5998;42.676;23.268;2022-08-21T03:33:34;94279.19;;;19.58;100.00
11878;BME280;5998;42.676;23.268;2022-08-21T03:36:03;94278.38;;;19.61;100.00
11878;BME280;5998;42.676;23.268;2022-08-21T03:38:31;94288.03;;;19.69;100.00
11878;BME280;5998;42.676;23.268;2022-08-21T03:41:00;94270.38;;;19.77;100.00
11878;BME280;5998;42.676;23.268;2022-08-21T03:43:28;94273.81;;;19.81;100.00
11878;BME280;5998;42.676;23.268;2022-08-21T03:45:55;94274.31;;;19.73;100.00
11878;BME280;5998;42.676;23.268;2022-08-21T03:48:21;94286.44;;;19.72;100.00
11878;BME280;5998;42.676;23.268;2022-08-21T03:50:51;94289.53;;;19.74;100.00
11878;BME280;5998;42.676;23.268;2022-08-21T03:53:18;94285.16;;;19.80;100.00
11878;BME280;5998;42.676;23.268;2022-08-21T03:55:46;94296.81;;;19.84;100.00
11878;BME280;5998;42.676;23.268;2022-08-21T03:58:16;94299.91;;;19.86;100.00
11878;BME280;5998;42.676;23.268;2022-08-21T04:00:44;94286.34;;;19.79;100.00
11878;BME280;5998;42.676;23.268;2022-08-21T04:03:11;94293.16;;;19.94;100.00
11878;BME280;5998;42.676;23.268;2022-08-21T04:05:37;94295.91;;;19.94;100.00
11878;BME280;5998;42.676;23.268;2022-08-21T04:08:05;94297.34;;;20.02;100.00
11878;BME280;5998;42.676;23.268;2022-08-21T04:10:34;94302.91;;;19.95;100.00
11878;BME280;5998;42.676;23.268;2022-08-21T04:13:03;94309.34;;;20.08;100.00
11878;BME280;5998;42.676;23.268;2022-08-21T04:15:31;94313.63;;;20.09;100.00
11878;BME280;5998;42.676;23.268;2022-08-21T04:17:58;94303.22;;;20.00;100.00
11878;BME280;5998;42.676;23.268;2022-08-21T04:20:26;94297.28;;;20.06;100.00
11878;BME280;5998;42.676;23.268;2022-08-21T04:22:53;94296.97;;;20.00;100.00
11878;BME280;5998;42.676;23.268;2022-08-21T04:25:21;94298.47;;;20.05;100.00
11878;BME280;5998;42.676;23.268;2022-08-21T04:27:49;94301.22;;;20.05;100.00
11878;BME280;5998;42.676;23.268;2022-08-21T04:30:16;94304.31;;;20.07;100.00
11878;BME280;5998;42.676;23.268;2022-08-21T04:32:46;94302.34;;;20.07;100.00
11878;BME280;5998;42.676;23.268;2022-08-21T04:35:15;94303.06;;;20.11;100.00
11878;BME280;5998;42.676;23.268;2022-08-21T04:37:42;94305.88;;;20.08;100.00
11878;BME280;5998;42.676;23.268;2022-08-21T04:40:10;94295.94;;;19.90;100.00
11878;BME280;5998;42.676;23.268;2022-08-21T04:42:42;94292.50;;;20.13;100.00
11878;BME280;5998;42.676;23.268;2022-08-21T04:45:16;94297.19;;;20.13;100.00
11878;BME280;5998;42.676;23.268;2022-08-21T04:47:42;94297.19;;;20.13;100.00
11878;BME280;5998;42.676;23.268;2022-08-21T04:50:11;94298.56;;;20.28;100.00
11878;BME280;5998;42.676;23.268;2022-08-21T04:52:38;94300.63;;;20.17;100.00
11878;BME280;5998;42.676;23.268;2022-08-21T04:55:05;94293.63;;;20.16;100.00
11878;BME280;5998;42.676;23.268;2022-08-21T04:57:34;94288.47;;;20.21;100.00
11878;BME280;5998;42.676;23.268;2022-08-21T05:00:02;94285.31;;;20.26;100.00
11878;BME280;5998;42.676;23.268;2022-08-21T05:02:30;94284.31;;;20.40;100.00
11878;BME280;5998;42.676;23.268;2022-08-21T05:04:59;94291.03;;;20.58;100.00
11878;BME280;5998;42.676;23.268;2022-08-21T05:07:29;94290.81;;;20.73;100.00
11878;BME280;5998;42.676;23.268;2022-08-21T05:09:58;94282.00;;;20.62;100.00
11878;BME280;5998;42.676;23.268;2022-08-21T05:12:26;94289.38;;;20.65;100.00
11878;BME280;5998;42.676;23.268;2022-08-21T05:14:52;94292.38;;;20.74;100.00
11878;BME280;5998;42.676;23.268;2022-08-21T05:17:19;94297.06;;;20.73;100.00
11878;BME280;5998;42.676;23.268;2022-08-21T05:19:46;94292.66;;;20.79;100.00
11878;BME280;5998;42.676;23.268;2022-08-21T05:22:19;94289.19;;;20.75;100.00
11878;BME280;5998;42.676;23.268;2022-08-21T05:24:47;94287.03;;;20.63;100.00
11878;BME280;5998;42.676;23.268;2022-08-21T05:27:14;94292.69;;;20.52;100.00
11878;BME280;5998;42.676;23.268;2022-08-21T05:29:40;94294.56;;;20.59;100.00
11878;BME280;5998;42.676;23.268;2022-08-21T05:32:09;94283.47;;;20.66;100.00
11878;BME280;5998;42.676;23.268;2022-08-21T05:34:36;94274.88;;;20.68;100.00
11878;BME280;5998;42.676;23.268;2022-08-21T05:37:03;94278.91;;;20.83;100.00
11878;BME280;5998;42.676;23.268;2022-08-21T05:39:29;94271.81;;;20.85;100.00
11878;BME280;5998;42.676;23.268;2022-08-21T05:41:57;94280.31;;;20.91;100.00
11878;BME280;5998;42.676;23.268;2022-08-21T05:44:24;94277.09;;;20.96;100.00
11878;BME280;5998;42.676;23.268;2022-08-21T05:46:51;94275.13;;;20.96;100.00
11878;BME280;5998;42.676;23.268;2022-08-21T05:49:17;94269.81;;;20.89;100.00
11878;BME280;5998;42.676;23.268;2022-08-21T05:51:44;94272.88;;;20.91;100.00
11878;BME280;5998;42.676;23.268;2022-08-21T05:54:11;94272.06;;;20.94;100.00
11878;BME280;5998;42.676;23.268;2022-08-21T05:56:37;94276.19;;;21.02;100.00
11878;BME280;5998;42.676;23.268;2022-08-21T05:59:05;94275.38;;;21.05;100.00
11878;BME280;5998;42.676;23.268;2022-08-21T06:01:33;94272.34;;;21.00;100.00
11878;BME280;5998;42.676;23.268;2022-08-21T06:03:59;94276.25;;;20.99;100.00
11878;BME280;5998;42.676;23.268;2022-08-21T06:06:26;94276.25;;;20.99;100.00
11878;BME280;5998;42.676;23.268;2022-08-21T06:08:53;94277.06;;;20.76;100.00
11878;BME280;5998;42.676;23.268;2022-08-21T06:11:19;94277.81;;;20.77;100.00
11878;BME280;5998;42.676;23.268;2022-08-21T06:13:46;94271.81;;;20.85;100.00
11878;BME280;5998;42.676;23.268;2022-08-21T06:16:15;94274.72;;;20.98;100.00
11878;BME280;5998;42.676;23.268;2022-08-21T06:18:43;94277.16;;;21.15;100.00
11878;BME280;5998;42.676;23.268;2022-08-21T06:21:11;94280.34;;;21.34;100.00
11878;BME280;5998;42.676;23.268;2022-08-21T06:23:38;94277.19;;;21.35;100.00
11878;BME280;5998;42.676;23.268;2022-08-21T06:26:06;94262.66;;;21.38;100.00
11878;BME280;5998;42.676;23.268;2022-08-21T06:28:33;94264.75;;;21.31;100.00
11878;BME280;5998;42.676;23.268;2022-08-21T06:31:00;94267.13;;;21.48;100.00
11878;BME280;5998;42.676;23.268;2022-08-21T06:33:28;94270.91;;;21.54;100.00
11878;BME280;5998;42.676;23.268;2022-08-21T06:35:55;94272.59;;;21.48;100.00
11878;BME280;5998;42.676;23.268;2022-08-21T06:38:22;94273.94;;;20.97;100.00
11878;BME280;5998;42.676;23.268;2022-08-21T06:40:48;94282.13;;;20.78;100.00
11878;BME280;5998;42.676;23.268;2022-08-21T06:43:16;94292.47;;;20.90;100.00
11878;BME280;5998;42.676;23.268;2022-08-21T06:45:44;94272.53;;;20.89;100.00
11878;BME280;5998;42.676;23.268;2022-08-21T06:48:11;94260.38;;;21.13;100.00
11878;BME280;5998;42.676;23.268;2022-08-21T06:50:39;94270.28;;;21.27;100.00
11878;BME280;5998;42.676;23.268;2022-08-21T06:53:09;94278.66;;;21.40;100.00
11878;BME280;5998;42.676;23.268;2022-08-21T06:55:36;94278.38;;;21.34;100.00
11878;BME280;5998;42.676;23.268;2022-08-21T06:58:04;94283.16;;;21.50;100.00
11878;BME280;5998;42.676;23.268;2022-08-21T07:00:32;94284.69;;;21.90;100.00
11878;BME280;5998;42.676;23.268;2022-08-21T07:02:59;94278.72;;;22.11;100.00
11878;BME280;5998;42.676;23.268;2022-08-21T07:05:26;94265.28;;;23.14;100.00
11878;BME280;5998;42.676;23.268;2022-08-21T07:07:55;94264.25;;;23.65;100.00
11878;BME280;5998;42.676;23.268;2022-08-21T07:10:22;94261.78;;;23.83;100.00
11878;BME280;5998;42.676;23.268;2022-08-21T07:12:50;94255.97;;;23.40;100.00
11878;BME280;5998;42.676;23.268;2022-08-21T07:15:17;94266.00;;;23.30;100.00
11878;BME280;5998;42.676;23.268;2022-08-21T07:17:44;94270.22;;;23.64;100.00
11878;BME280;5998;42.676;23.268;2022-08-21T07:20:11;94267.19;;;23.87;100.00
11878;BME280;5998;42.676;23.268;2022-08-21T07:22:38;94253.16;;;24.10;100.00
11878;BME280;5998;42.676;23.268;2022-08-21T07:25:08;94256.44;;;24.18;100.00
11878;BME280;5998;42.676;23.268;2022-08-21T07:27:35;94262.19;;;24.11;100.00
11878;BME280;5998;42.676;23.268;2022-08-21T07:30:03;94259.22;;;23.64;100.00
11878;BME280;5998;42.676;23.268;2022-08-21T07:32:29;94255.91;;;23.56;100.00
11878;BME280;5998;42.676;23.268;2022-08-21T07:34:56;94251.84;;;23.61;100.00
11878;BME280;5998;42.676;23.268;2022-08-21T07:37:23;94240.88;;;23.86;100.00
11878;BME280;5998;42.676;23.268;2022-08-21T07:39:50;94239.94;;;23.51;100.00
11878;BME280;5998;42.676;23.268;2022-08-21T07:42:18;94242.06;;;22.86;100.00
11878;BME280;5998;42.676;23.268;2022-08-21T07:44:45;94228.69;;;22.88;100.00
11878;BME280;5998;42.676;23.268;2022-08-21T07:47:11;94237.06;;;22.97;100.00
11878;BME280;5998;42.676;23.268;2022-08-21T07:49:38;94238.34;;;23.09;100.00
11878;BME280;5998;42.676;23.268;2022-08-21T07:52:05;94227.25;;;24.07;100.00
11878;BME280;5998;42.676;23.268;2022-08-21T07:54:32;94233.84;;;24.86;100.00
11878;BME280;5998;42.676;23.268;2022-08-21T07:56:58;94231.72;;;25.46;100.00
11878;BME280;5998;42.676;23.268;2022-08-21T07:59:27;94231.06;;;25.85;100.00
11878;BME280;5998;42.676;23.268;2022-08-21T08:01:53;94231.97;;;26.44;100.00
11878;BME280;5998;42.676;23.268;2022-08-21T08:04:21;94240.84;;;26.38;100.00
11878;BME280;5998;42.676;23.268;2022-08-21T08:06:48;94242.59;;;26.14;100.00
11878;BME280;5998;42.676;23.268;2022-08-21T08:09:14;94244.06;;;26.06;100.00
11878;BME280;5998;42.676;23.268;2022-08-21T08:11:42;94229.59;;;26.24;100.00
11878;BME280;5998;42.676;23.268;2022-08-21T08:14:10;94235.53;;;26.13;100.00
11878;BME280;5998;42.676;23.268;2022-08-21T08:16:38;94230.50;;;26.61;100.00
11878;BME280;5998;42.676;23.268;2022-08-21T08:19:05;94206.56;;;26.67;100.00
11878;BME280;5998;42.676;23.268;2022-08-21T08:21:32;94227.75;;;26.70;100.00
11878;BME280;5998;42.676;23.268;2022-08-21T08:23:59;94221.38;;;26.91;100.00
11878;BME280;5998;42.676;23.268;2022-08-21T08:26:26;94232.28;;;27.04;100.00
11878;BME280;5998;42.676;23.268;2022-08-21T08:28:53;94220.94;;;26.44;100.00
11878;BME280;5998;42.676;23.268;2022-08-21T08:31:19;94236.03;;;25.90;100.00
11878;BME280;5998;42.676;23.268;2022-08-21T08:33:48;94228.31;;;25.20;100.00
11878;BME280;5998;42.676;23.268;2022-08-21T08:36:15;94226.22;;;24.77;100.00
11878;BME280;5998;42.676;23.268;2022-08-21T08:38:43;94213.59;;;24.54;100.00
11878;BME280;5998;42.676;23.268;2022-08-21T08:41:12;94221.97;;;24.63;100.00
11878;BME280;5998;42.676;23.268;2022-08-21T08:43:41;94246.16;;;24.94;100.00
11878;BME280;5998;42.676;23.268;2022-08-21T08:46:13;94232.47;;;25.24;100.00
11878;BME280;5998;42.676;23.268;2022-08-21T08:48:47;94235.34;;;25.55;100.00
11878;BME280;5998;42.676;23.268;2022-08-21T08:51:21;94236.59;;;25.85;100.00
11878;BME280;5998;42.676;23.268;2022-08-21T08:53:51;94199.84;;;25.66;100.00
11878;BME280;5998;42.676;23.268;2022-08-21T08:56:25;94226.69;;;26.27;100.00
11878;BME280;5998;42.676;23.268;2022-08-21T08:58:53;94220.59;;;26.90;100.00
11878;BME280;5998;42.676;23.268;2022-08-21T09:01:22;94207.25;;;26.40;100.00
11878;BME280;5998;42.676;23.268;2022-08-21T09:03:50;94212.72;;;26.71;100.00
11878;BME280;5998;42.676;23.268;2022-08-21T09:06:31;94204.50;;;27.52;100.00
11878;BME280;5998;42.676;23.268;2022-08-21T09:09:09;94211.56;;;27.44;100.00
11878;BME280;5998;42.676;23.268;2022-08-21T09:11:45;94204.50;;;27.16;100.00
11878;BME280;5998;42.676;23.268;2022-08-21T09:14:22;94208.31;;;27.28;100.00
11878;BME280;5998;42.676;23.268;2022-08-21T09:16:56;94202.63;;;27.77;100.00
11878;BME280;5998;42.676;23.268;2022-08-21T09:19:47;94197.63;;;28.08;100.00
11878;BME280;5998;42.676;23.268;2022-08-21T09:22:23;94198.53;;;28.14;100.00
11878;BME280;5998;42.676;23.268;2022-08-21T09:25:08;94187.63;;;28.10;100.00
11878;BME280;5998;42.676;23.268;2022-08-21T09:27:38;94171.31;;;28.13;100.00
11878;BME280;5998;42.676;23.268;2022-08-21T09:30:07;94188.63;;;28.31;100.00
11878;BME280;5998;42.676;23.268;2022-08-21T09:32:36;94173.13;;;28.16;100.00
11878;BME280;5998;42.676;23.268;2022-08-21T09:35:06;94186.09;;;28.00;100.00
11878;BME280;5998;42.676;23.268;2022-08-21T09:37:48;94186.63;;;27.72;100.00
11878;BME280;5998;42.676;23.268;2022-08-21T09:40:37;94175.69;;;27.86;100.00
11878;BME280;5998;42.676;23.268;2022-08-21T09:43:12;94175.19;;;28.06;100.00
11878;BME280;5998;42.676;23.268;2022-08-21T09:45:43;94181.66;;;27.94;100.00
11878;BME280;5998;42.676;23.268;2022-08-21T09:48:13;94183.25;;;27.77;100.00
11878;BME280;5998;42.676;23.268;2022-08-21T09:50:42;94184.38;;;27.52;100.00
11878;BME280;5998;42.676;23.268;2022-08-21T09:53:17;94179.47;;;27.38;100.00
11878;BME280;5998;42.676;23.268;2022-08-21T09:55:51;94180.53;;;27.22;100.00
11878;BME280;5998;42.676;23.268;2022-08-21T09:58:37;94177.00;;;27.13;100.00
11878;BME280;5998;42.676;23.268;2022-08-21T10:01:06;94180.09;;;26.97;100.00
11878;BME280;5998;42.676;23.268;2022-08-21T10:03:33;94163.47;;;26.78;100.00
11878;BME280;5998;42.676;23.268;2022-08-21T10:06:02;94168.38;;;26.74;100.00
11878;BME280;5998;42.676;23.268;2022-08-21T10:08:33;94165.31;;;26.72;100.00
11878;BME280;5998;42.676;23.268;2022-08-21T10:11:05;94170.22;;;26.77;100.00
11878;BME280;5998;42.676;23.268;2022-08-21T10:13:47;94173.63;;;26.81;100.00
11878;BME280;5998;42.676;23.268;2022-08-21T10:16:26;94166.72;;;26.86;100.00
11878;BME280;5998;42.676;23.268;2022-08-21T10:19:02;94164.88;;;26.92;100.00
11878;BME280;5998;42.676;23.268;2022-08-21T10:21:36;94142.16;;;26.79;100.00
11878;BME280;5998;42.676;23.268;2022-08-21T10:24:13;94149.66;;;27.24;100.00
11878;BME280;5998;42.676;23.268;2022-08-21T10:26:49;94113.72;;;27.42;100.00
11878;BME280;5998;42.676;23.268;2022-08-21T10:29:34;94140.81;;;28.22;100.00
11878;BME280;5998;42.676;23.268;2022-08-21T10:32:15;94143.50;;;28.07;100.00
11878;BME280;5998;42.676;23.268;2022-08-21T10:34:52;94125.03;;;27.71;100.00
11878;BME280;5998;42.676;23.268;2022-08-21T10:37:28;94136.81;;;27.72;100.00
11878;BME280;5998;42.676;23.268;2022-08-21T10:40:10;94141.66;;;27.53;100.00
11878;BME280;5998;42.676;23.268;2022-08-21T10:42:51;94140.59;;;27.50;100.00
11878;BME280;5998;42.676;23.268;2022-08-21T10:45:30;94134.69;;;27.67;100.00
11878;BME280;5998;42.676;23.268;2022-08-21T10:48:02;94131.44;;;27.77;100.00
11878;BME280;5998;42.676;23.268;2022-08-21T10:50:31;94127.50;;;28.02;100.00
11878;BME280;5998;42.676;23.268;2022-08-21T10:53:11;94123.91;;;28.43;100.00
11878;BME280;5998;42.676;23.268;2022-08-21T10:55:48;94122.81;;;28.74;100.00
11878;BME280;5998;42.676;23.268;2022-08-21T10:58:22;94120.97;;;28.94;100.00
11878;BME280;5998;42.676;23.268;2022-08-21T11:00:55;94118.03;;;28.74;100.00
11878;BME280;5998;42.676;23.268;2022-08-21T11:03:29;94110.16;;;28.96;100.00
11878;BME280;5998;42.676;23.268;2022-08-21T11:06:04;94110.94;;;28.97;100.00
11878;BME280;5998;42.676;23.268;2022-08-21T11:08:35;94112.59;;;28.80;100.00
11878;BME280;5998;42.676;23.268;2022-08-21T11:11:09;94109.19;;;28.85;100.00
11878;BME280;5998;42.676;23.268;2022-08-21T11:13:41;94085.59;;;28.89;100.00
11878;BME280;5998;42.676;23.268;2022-08-21T11:16:15;94050.66;;;28.68;100.00
11878;BME280;5998;42.676;23.268;2022-08-21T11:18:47;94082.84;;;29.04;100.00
11878;BME280;5998;42.676;23.268;2022-08-21T11:21:30;94072.72;;;28.39;100.00
11878;BME280;5998;42.676;23.268;2022-08-21T11:24:03;94096.59;;;28.84;100.00
11878;BME280;5998;42.676;23.268;2022-08-21T11:26:44;94092.16;;;28.53;100.00
11878;BME280;5998;42.676;23.268;2022-08-21T11:29:18;94092.66;;;27.86;100.00
11878;BME280;5998;42.676;23.268;2022-08-21T11:32:06;94054.53;;;27.90;100.00
11878;BME280;5998;42.676;23.268;2022-08-21T11:34:43;94083.91;;;28.68;100.00
11878;BME280;5998;42.676;23.268;2022-08-21T11:37:23;94080.63;;;28.93;100.00
11878;BME280;5998;42.676;23.268;2022-08-21T11:40:03;94077.19;;;28.36;100.00
11878;BME280;5998;42.676;23.268;2022-08-21T11:42:38;94080.84;;;28.42;100.00
11878;BME280;5998;42.676;23.268;2022-08-21T11:45:17;94080.78;;;28.51;100.00
11878;BME280;5998;42.676;23.268;2022-08-21T11:47:58;94088.41;;;28.65;100.00
11878;BME280;5998;42.676;23.268;2022-08-21T11:50:30;94083.72;;;28.72;100.00
11878;BME280;5998;42.676;23.268;2022-08-21T11:53:02;94085.16;;;28.67;100.00
11878;BME280;5998;42.676;23.268;2022-08-21T11:55:35;94078.66;;;28.46;100.00
11878;BME280;5998;42.676;23.268;2022-08-21T11:58:08;94080.38;;;28.44;100.00
11878;BME280;5998;42.676;23.268;2022-08-21T12:00:42;94075.13;;;28.22;100.00
11878;BME280;5998;42.676;23.268;2022-08-21T12:03:15;94078.91;;;27.08;100.00
11878;BME280;5998;42.676;23.268;2022-08-21T12:05:52;94076.56;;;27.25;100.00
11878;BME280;5998;42.676;23.268;2022-08-21T12:08:27;94069.84;;;27.08;100.00
11878;BME280;5998;42.676;23.268;2022-08-21T12:11:01;94063.47;;;27.34;100.00
11878;BME280;5998;42.676;23.268;2022-08-21T12:13:32;94071.78;;;27.43;100.00
11878;BME280;5998;42.676;23.268;2022-08-21T12:16:08;94071.50;;;27.23;100.00
11878;BME280;5998;42.676;23.268;2022-08-21T12:18:36;94066.31;;;27.07;100.00
11878;BME280;5998;42.676;23.268;2022-08-21T12:21:19;94062.19;;;26.93;100.00
11878;BME280;5998;42.676;23.268;2022-08-21T12:23:48;94080.47;;;26.82;100.00
11878;BME280;5998;42.676;23.268;2022-08-21T12:26:27;94077.41;;;26.80;100.00
11878;BME280;5998;42.676;23.268;2022-08-21T12:29:22;94070.78;;;26.68;100.00
11878;BME280;5998;42.676;23.268;2022-08-21T12:31:58;94074.16;;;26.72;100.00
11878;BME280;5998;42.676;23.268;2022-08-21T12:34:32;94075.22;;;26.75;100.00
11878;BME280;5998;42.676;23.268;2022-08-21T12:37:02;94077.66;;;26.73;100.00
11878;BME280;5998;42.676;23.268;2022-08-21T12:39:32;94071.41;;;26.81;100.00
11878;BME280;5998;42.676;23.268;2022-08-21T12:42:05;94073.38;;;26.90;100.00
11878;BME280;5998;42.676;23.268;2022-08-21T12:44:41;94067.56;;;26.70;100.00
11878;BME280;5998;42.676;23.268;2022-08-21T12:47:15;94073.72;;;26.83;100.00
11878;BME280;5998;42.676;23.268;2022-08-21T12:50:00;94060.34;;;26.72;100.00
11878;BME280;5998;42.676;23.268;2022-08-21T12:52:32;94066.78;;;26.78;100.00
11878;BME280;5998;42.676;23.268;2022-08-21T12:55:00;94067.88;;;26.72;100.00
11878;BME280;5998;42.676;23.268;2022-08-21T12:57:28;94065.41;;;26.56;100.00
11878;BME280;5998;42.676;23.268;2022-08-21T12:59:59;94066.63;;;26.46;100.00
11878;BME280;5998;42.676;23.268;2022-08-21T13:02:29;94063.84;;;26.27;100.00
11878;BME280;5998;42.676;23.268;2022-08-21T13:04:58;94070.25;;;26.15;100.00